sensor_id;sensor_type;location;lat;lon;timestamp;temperature;humidity
33903;DHT22;20194;50.950;5.346;2023-08-17T00:00:15;22.60;23.30
33903;DHT22;20194;50.950;5.346;2023-08-17T00:02:43;22.60;22.80
33903;DHT22;20194;50.950;5.346;2023-08-17T00:05:09;22.30;22.90
33903;DHT22;20194;50.950;5.346;2023-08-17T00:07:37;22.30;23.00
33903;DHT22;20194;50.950;5.346;2023-08-17T00:10:03;22.10;24.10
33903;DHT22;20194;50.950;5.346;2023-08-17T00:12:29;22.00;24.90
33903;DHT22;20194;50.950;5.346;2023-08-17T00:14:55;22.00;24.90
33903;DHT22;20194;50.950;5.346;2023-08-17T00:17:20;22.00;25.40
33903;DHT22;20194;50.950;5.346;2023-08-17T00:19:46;22.10;24.30
33903;DHT22;20194;50.950;5.346;2023-08-17T00:22:12;22.00;24.10
33903;DHT22;20194;50.950;5.346;2023-08-17T00:24:38;22.10;23.20
33903;DHT22;20194;50.950;5.346;2023-08-17T00:27:04;22.00;24.00
33903;DHT22;20194;50.950;5.346;2023-08-17T00:29:30;22.20;21.50
33903;DHT22;20194;50.950;5.346;2023-08-17T00:31:55;22.20;20.90
33903;DHT22;20194;50.950;5.346;2023-08-17T00:34:21;22.00;21.50
33903;DHT22;20194;50.950;5.346;2023-08-17T00:36:47;21.90;23.10
33903;DHT22;20194;50.950;5.346;2023-08-17T00:39:13;21.80;21.20
33903;DHT22;20194;50.950;5.346;2023-08-17T00:41:40;21.70;22.90
33903;DHT22;20194;50.950;5.346;2023-08-17T00:44:06;21.60;23.80
33903;DHT22;20194;50.950;5.346;2023-08-17T00:46:31;21.60;24.50
33903;DHT22;20194;50.950;5.346;2023-08-17T00:48:58;21.70;23.10
33903;DHT22;20194;50.950;5.346;2023-08-17T00:51:25;21.90;19.80
33903;DHT22;20194;50.950;5.346;2023-08-17T00:53:53;21.90;18.60
33903;DHT22;20194;50.950;5.346;2023-08-17T00:56:20;21.90;18.20
33903;DHT22;20194;50.950;5.346;2023-08-17T00:58:46;22.10;17.10
33903;DHT22;20194;50.950;5.346;2023-08-17T01:01:12;22.20;15.50
33903;DHT22;20194;50.950;5.346;2023-08-17T01:03:40;22.20;14.80
33903;DHT22;20194;50.950;5.346;2023-08-17T01:06:09;22.10;14.20
33903;DHT22;20194;50.950;5.346;2023-08-17T01:08:35;22.10;13.70
33903;DHT22;20194;50.950;5.346;2023-08-17T01:11:22;22.20;12.60
33903;DHT22;20194;50.950;5.346;2023-08-17T01:16:40;21.80;17.20
33903;DHT22;20194;50.950;5.346;2023-08-17T01:19:08;21.80;16.60
33903;DHT22;20194;50.950;5.346;2023-08-17T01:21:48;21.70;18.10
33903;DHT22;20194;50.950;5.346;2023-08-17T01:24:15;21.70;17.30
33903;DHT22;20194;50.950;5.346;2023-08-17T01:26:40;21.50;20.10
33903;DHT22;20194;50.950;5.346;2023-08-17T01:29:07;21.50;20.50
33903;DHT22;20194;50.950;5.346;2023-08-17T01:34:39;21.70;17.40
33903;DHT22;20194;50.950;5.346;2023-08-17T01:37:07;21.70;19.80
33903;DHT22;20194;50.950;5.346;2023-08-17T01:39:37;21.70;18.60
33903;DHT22;20194;50.950;5.346;2023-08-17T01:42:05;21.80;16.80
33903;DHT22;20194;50.950;5.346;2023-08-17T01:44:32;21.90;17.20
33903;DHT22;20194;50.950;5.346;2023-08-17T01:46:58;22.00;15.80
33903;DHT22;20194;50.950;5.346;2023-08-17T01:49:24;21.80;18.00
33903;DHT22;20194;50.950;5.346;2023-08-17T01:51:49;21.80;17.30
33903;DHT22;20194;50.950;5.346;2023-08-17T01:54:15;21.80;17.20
33903;DHT22;20194;50.950;5.346;2023-08-17T01:56:40;21.80;18.30
33903;DHT22;20194;50.950;5.346;2023-08-17T01:59:06;21.80;18.60
33903;DHT22;20194;50.950;5.346;2023-08-17T02:01:32;21.90;18.10
33903;DHT22;20194;50.950;5.346;2023-08-17T02:03:57;21.90;18.70
33903;DHT22;20194;50.950;5.346;2023-08-17T02:06:26;22.00;17.50
33903;DHT22;20194;50.950;5.346;2023-08-17T02:08:53;21.90;18.10
33903;DHT22;20194;50.950;5.346;2023-08-17T02:11:18;21.90;19.00
33903;DHT22;20194;50.950;5.346;2023-08-17T02:13:44;21.80;18.80
33903;DHT22;20194;50.950;5.346;2023-08-17T02:16:09;21.80;19.60
33903;DHT22;20194;50.950;5.346;2023-08-17T02:18:35;21.80;18.80
33903;DHT22;20194;50.950;5.346;2023-08-17T02:21:01;21.60;20.20
33903;DHT22;20194;50.950;5.346;2023-08-17T02:23:26;21.40;25.10
33903;DHT22;20194;50.950;5.346;2023-08-17T02:25:52;21.50;23.90
33903;DHT22;20194;50.950;5.346;2023-08-17T02:28:18;21.40;24.30
33903;DHT22;20194;50.950;5.346;2023-08-17T02:30:43;21.40;25.20
33903;DHT22;20194;50.950;5.346;2023-08-17T02:33:09;21.20;27.30
33903;DHT22;20194;50.950;5.346;2023-08-17T02:35:35;21.30;27.30
33903;DHT22;20194;50.950;5.346;2023-08-17T02:38:00;21.40;27.00
33903;DHT22;20194;50.950;5.346;2023-08-17T02:40:26;21.50;24.80
33903;DHT22;20194;50.950;5.346;2023-08-17T02:42:52;21.50;24.60
33903;DHT22;20194;50.950;5.346;2023-08-17T02:45:18;21.50;24.30
33903;DHT22;20194;50.950;5.346;2023-08-17T02:47:44;21.60;23.50
33903;DHT22;20194;50.950;5.346;2023-08-17T02:50:10;21.60;22.10
33903;DHT22;20194;50.950;5.346;2023-08-17T02:52:37;21.70;21.50
33903;DHT22;20194;50.950;5.346;2023-08-17T02:55:02;21.50;22.00
33903;DHT22;20194;50.950;5.346;2023-08-17T02:57:28;21.40;24.30
33903;DHT22;20194;50.950;5.346;2023-08-17T02:59:54;21.40;23.10
33903;DHT22;20194;50.950;5.346;2023-08-17T03:02:19;21.30;23.90
33903;DHT22;20194;50.950;5.346;2023-08-17T03:04:45;21.40;24.70
33903;DHT22;20194;50.950;5.346;2023-08-17T03:07:11;21.30;24.20
33903;DHT22;20194;50.950;5.346;2023-08-17T03:09:36;21.40;24.40
33903;DHT22;20194;50.950;5.346;2023-08-17T03:12:02;21.60;22.80
33903;DHT22;20194;50.950;5.346;2023-08-17T03:14:28;21.80;19.30
33903;DHT22;20194;50.950;5.346;2023-08-17T03:16:54;21.80;19.60
33903;DHT22;20194;50.950;5.346;2023-08-17T03:19:20;21.80;18.80
33903;DHT22;20194;50.950;5.346;2023-08-17T03:21:46;21.90;19.10
33903;DHT22;20194;50.950;5.346;2023-08-17T03:24:12;21.90;18.20
33903;DHT22;20194;50.950;5.346;2023-08-17T03:26:37;22.00;17.90
33903;DHT22;20194;50.950;5.346;2023-08-17T03:29:04;21.80;19.30
33903;DHT22;20194;50.950;5.346;2023-08-17T03:31:29;21.70;20.80
33903;DHT22;20194;50.950;5.346;2023-08-17T03:33:55;21.70;20.50
33903;DHT22;20194;50.950;5.346;2023-08-17T03:36:21;21.60;22.30
33903;DHT22;20194;50.950;5.346;2023-08-17T03:38:47;21.70;22.00
33903;DHT22;20194;50.950;5.346;2023-08-17T03:41:12;21.70;21.00
33903;DHT22;20194;50.950;5.346;2023-08-17T03:43:38;21.80;20.30
33903;DHT22;20194;50.950;5.346;2023-08-17T03:46:04;21.70;22.20
33903;DHT22;20194;50.950;5.346;2023-08-17T03:48:30;21.70;21.80
33903;DHT22;20194;50.950;5.346;2023-08-17T03:50:56;21.60;23.10
33903;DHT22;20194;50.950;5.346;2023-08-17T03:53:21;21.50;24.80
33903;DHT22;20194;50.950;5.346;2023-08-17T03:55:48;21.50;25.00
33903;DHT22;20194;50.950;5.346;2023-08-17T03:58:14;21.60;23.90
33903;DHT22;20194;50.950;5.346;2023-08-17T04:00:41;21.60;23.30
33903;DHT22;20194;50.950;5.346;2023-08-17T04:03:07;21.50;23.60
33903;DHT22;20194;50.950;5.346;2023-08-17T04:05:33;21.40;25.40
33903;DHT22;20194;50.950;5.346;2023-08-17T04:08:00;21.30;27.40
33903;DHT22;20194;50.950;5.346;2023-08-17T04:10:28;21.30;26.60
33903;DHT22;20194;50.950;5.346;2023-08-17T04:12:54;21.20;28.00
33903;DHT22;20194;50.950;5.346;2023-08-17T04:15:20;20.80;31.70
33903;DHT22;20194;50.950;5.346;2023-08-17T04:17:45;20.80;32.80
33903;DHT22;20194;50.950;5.346;2023-08-17T04:20:11;21.00;31.30
33903;DHT22;20194;50.950;5.346;2023-08-17T04:22:37;20.90;30.70
33903;DHT22;20194;50.950;5.346;2023-08-17T04:25:03;20.60;34.80
33903;DHT22;20194;50.950;5.346;2023-08-17T04:27:28;20.40;37.80
33903;DHT22;20194;50.950;5.346;2023-08-17T04:29:54;20.40;39.30
33903;DHT22;20194;50.950;5.346;2023-08-17T04:32:19;20.50;37.90
33903;DHT22;20194;50.950;5.346;2023-08-17T04:34:45;20.60;36.80
33903;DHT22;20194;50.950;5.346;2023-08-17T04:37:11;20.70;35.70
33903;DHT22;20194;50.950;5.346;2023-08-17T04:39:37;20.70;33.10
33903;DHT22;20194;50.950;5.346;2023-08-17T04:42:04;20.70;33.70
33903;DHT22;20194;50.950;5.346;2023-08-17T04:44:30;20.60;33.30
33903;DHT22;20194;50.950;5.346;2023-08-17T04:46:55;20.60;34.20
33903;DHT22;20194;50.950;5.346;2023-08-17T04:49:22;20.40;35.50
33903;DHT22;20194;50.950;5.346;2023-08-17T04:51:47;20.40;36.20
33903;DHT22;20194;50.950;5.346;2023-08-17T04:54:13;20.40;35.10
33903;DHT22;20194;50.950;5.346;2023-08-17T04:56:39;20.50;34.70
33903;DHT22;20194;50.950;5.346;2023-08-17T04:59:04;20.30;35.80
33903;DHT22;20194;50.950;5.346;2023-08-17T05:01:30;20.20;38.50
33903;DHT22;20194;50.950;5.346;2023-08-17T05:03:57;20.20;38.50
33903;DHT22;20194;50.950;5.346;2023-08-17T05:06:23;20.20;38.80
33903;DHT22;20194;50.950;5.346;2023-08-17T05:08:48;20.10;38.80
33903;DHT22;20194;50.950;5.346;2023-08-17T05:11:14;20.10;40.40
33903;DHT22;20194;50.950;5.346;2023-08-17T05:13:40;20.10;38.30
33903;DHT22;20194;50.950;5.346;2023-08-17T05:16:05;20.20;39.20
33903;DHT22;20194;50.950;5.346;2023-08-17T05:18:31;20.30;37.80
33903;DHT22;20194;50.950;5.346;2023-08-17T05:20:57;20.50;35.00
33903;DHT22;20194;50.950;5.346;2023-08-17T05:23:23;20.50;34.10
33903;DHT22;20194;50.950;5.346;2023-08-17T05:25:48;20.60;32.60
33903;DHT22;20194;50.950;5.346;2023-08-17T05:28:15;20.70;29.90
33903;DHT22;20194;50.950;5.346;2023-08-17T05:30:40;20.70;31.30
33903;DHT22;20194;50.950;5.346;2023-08-17T05:33:06;20.80;30.00
33903;DHT22;20194;50.950;5.346;2023-08-17T05:35:32;20.70;30.00
33903;DHT22;20194;50.950;5.346;2023-08-17T05:37:58;20.50;32.80
33903;DHT22;20194;50.950;5.346;2023-08-17T05:40:23;20.60;32.30
33903;DHT22;20194;50.950;5.346;2023-08-17T05:42:49;20.70;31.90
33903;DHT22;20194;50.950;5.346;2023-08-17T05:45:15;20.70;30.70
33903;DHT22;20194;50.950;5.346;2023-08-17T05:47:40;20.80;29.90
33903;DHT22;20194;50.950;5.346;2023-08-17T05:50:06;21.00;28.70
33903;DHT22;20194;50.950;5.346;2023-08-17T05:52:32;21.00;29.10
33903;DHT22;20194;50.950;5.346;2023-08-17T05:54:58;20.90;28.40
33903;DHT22;20194;50.950;5.346;2023-08-17T05:57:23;21.00;28.10
33903;DHT22;20194;50.950;5.346;2023-08-17T05:59:50;20.80;29.30
33903;DHT22;20194;50.950;5.346;2023-08-17T06:02:15;20.40;33.60
33903;DHT22;20194;50.950;5.346;2023-08-17T06:04:41;20.50;33.90
33903;DHT22;20194;50.950;5.346;2023-08-17T06:07:07;20.60;33.10
33903;DHT22;20194;50.950;5.346;2023-08-17T06:09:33;20.70;30.50
33903;DHT22;20194;50.950;5.346;2023-08-17T06:11:59;20.80;29.10
33903;DHT22;20194;50.950;5.346;2023-08-17T06:14:24;20.90;26.70
33903;DHT22;20194;50.950;5.346;2023-08-17T06:16:50;20.90;28.10
33903;DHT22;20194;50.950;5.346;2023-08-17T06:19:17;20.90;27.20
33903;DHT22;20194;50.950;5.346;2023-08-17T06:21:43;20.90;26.50
33903;DHT22;20194;50.950;5.346;2023-08-17T06:24:08;20.70;28.20
33903;DHT22;20194;50.950;5.346;2023-08-17T06:26:34;20.60;29.70
33903;DHT22;20194;50.950;5.346;2023-08-17T06:29:00;20.50;32.40
33903;DHT22;20194;50.950;5.346;2023-08-17T06:31:26;20.50;32.40
33903;DHT22;20194;50.950;5.346;2023-08-17T06:33:54;20.20;33.40
33903;DHT22;20194;50.950;5.346;2023-08-17T06:36:20;20.30;36.20
33903;DHT22;20194;50.950;5.346;2023-08-17T06:38:45;20.30;34.70
33903;DHT22;20194;50.950;5.346;2023-08-17T06:41:12;20.00;38.20
33903;DHT22;20194;50.950;5.346;2023-08-17T06:43:38;20.00;39.30
33903;DHT22;20194;50.950;5.346;2023-08-17T06:46:04;19.90;38.30
33903;DHT22;20194;50.950;5.346;2023-08-17T06:48:30;19.80;41.10
33903;DHT22;20194;50.950;5.346;2023-08-17T06:50:56;19.80;42.70
33903;DHT22;20194;50.950;5.346;2023-08-17T06:53:22;20.10;40.00
33903;DHT22;20194;50.950;5.346;2023-08-17T06:55:48;20.00;39.60
33903;DHT22;20194;50.950;5.346;2023-08-17T06:58:13;20.10;39.40
33903;DHT22;20194;50.950;5.346;2023-08-17T07:00:39;19.90;40.00
33903;DHT22;20194;50.950;5.346;2023-08-17T07:03:06;19.80;42.70
33903;DHT22;20194;50.950;5.346;2023-08-17T07:05:32;19.90;40.50
33903;DHT22;20194;50.950;5.346;2023-08-17T07:07:58;20.10;40.50
33903;DHT22;20194;50.950;5.346;2023-08-17T07:10:25;20.20;38.50
33903;DHT22;20194;50.950;5.346;2023-08-17T07:12:50;20.30;37.70
33903;DHT22;20194;50.950;5.346;2023-08-17T07:15:16;20.30;36.20
33903;DHT22;20194;50.950;5.346;2023-08-17T07:17:42;20.30;38.40
33903;DHT22;20194;50.950;5.346;2023-08-17T07:20:09;20.40;36.30
33903;DHT22;20194;50.950;5.346;2023-08-17T07:22:36;20.30;36.60
33903;DHT22;20194;50.950;5.346;2023-08-17T07:25:02;20.20;39.20
33903;DHT22;20194;50.950;5.346;2023-08-17T07:27:29;20.20;40.00
33903;DHT22;20194;50.950;5.346;2023-08-17T07:29:55;20.40;38.90
33903;DHT22;20194;50.950;5.346;2023-08-17T07:32:20;20.40;37.50
33903;DHT22;20194;50.950;5.346;2023-08-17T07:34:47;20.40;38.20
33903;DHT22;20194;50.950;5.346;2023-08-17T07:37:12;20.60;36.20
33903;DHT22;20194;50.950;5.346;2023-08-17T07:39:38;20.80;33.80
33903;DHT22;20194;50.950;5.346;2023-08-17T07:42:04;20.60;33.70
33903;DHT22;20194;50.950;5.346;2023-08-17T07:44:30;20.60;35.00
33903;DHT22;20194;50.950;5.346;2023-08-17T07:46:57;20.40;37.10
33903;DHT22;20194;50.950;5.346;2023-08-17T07:49:23;20.40;39.20
33903;DHT22;20194;50.950;5.346;2023-08-17T07:51:49;20.30;38.90
33903;DHT22;20194;50.950;5.346;2023-08-17T07:54:15;20.20;40.00
33903;DHT22;20194;50.950;5.346;2023-08-17T07:56:41;20.30;42.40
33903;DHT22;20194;50.950;5.346;2023-08-17T07:59:06;20.40;38.30
33903;DHT22;20194;50.950;5.346;2023-08-17T08:01:32;20.40;37.90
33903;DHT22;20194;50.950;5.346;2023-08-17T08:03:58;20.20;40.40
33903;DHT22;20194;50.950;5.346;2023-08-17T08:06:24;20.10;43.30
33903;DHT22;20194;50.950;5.346;2023-08-17T08:08:50;20.20;42.90
33903;DHT22;20194;50.950;5.346;2023-08-17T08:11:16;20.30;39.60
33903;DHT22;20194;50.950;5.346;2023-08-17T08:13:41;20.40;41.60
33903;DHT22;20194;50.950;5.346;2023-08-17T08:16:07;20.60;37.40
33903;DHT22;20194;50.950;5.346;2023-08-17T08:18:32;20.70;36.50
33903;DHT22;20194;50.950;5.346;2023-08-17T08:20:58;20.50;37.40
33903;DHT22;20194;50.950;5.346;2023-08-17T08:23:25;20.30;41.60
33903;DHT22;20194;50.950;5.346;2023-08-17T08:25:51;20.40;41.50
33903;DHT22;20194;50.950;5.346;2023-08-17T08:28:17;20.60;40.00
33903;DHT22;20194;50.950;5.346;2023-08-17T08:30:43;20.60;38.30
33903;DHT22;20194;50.950;5.346;2023-08-17T08:33:08;20.60;38.70
33903;DHT22;20194;50.950;5.346;2023-08-17T08:35:34;20.60;39.10
33903;DHT22;20194;50.950;5.346;2023-08-17T08:38:00;20.60;38.80
33903;DHT22;20194;50.950;5.346;2023-08-17T08:40:28;20.80;38.30
33903;DHT22;20194;50.950;5.346;2023-08-17T08:42:55;20.80;38.80
33903;DHT22;20194;50.950;5.346;2023-08-17T08:45:22;20.80;37.40
33903;DHT22;20194;50.950;5.346;2023-08-17T08:47:49;20.90;35.90
33903;DHT22;20194;50.950;5.346;2023-08-17T08:50:19;20.70;38.40
33903;DHT22;20194;50.950;5.346;2023-08-17T08:52:58;20.60;38.60
33903;DHT22;20194;50.950;5.346;2023-08-17T08:55:27;20.80;40.10
33903;DHT22;20194;50.950;5.346;2023-08-17T08:57:53;21.00;36.90
33903;DHT22;20194;50.950;5.346;2023-08-17T09:00:20;21.20;35.20
33903;DHT22;20194;50.950;5.346;2023-08-17T09:02:46;21.30;32.60
33903;DHT22;20194;50.950;5.346;2023-08-17T09:05:13;21.10;32.90
33903;DHT22;20194;50.950;5.346;2023-08-17T09:07:40;21.10;33.20
33903;DHT22;20194;50.950;5.346;2023-08-17T09:10:09;21.20;32.40
33903;DHT22;20194;50.950;5.346;2023-08-17T09:12:34;21.30;31.80
33903;DHT22;20194;50.950;5.346;2023-08-17T09:15:00;21.30;31.40
33903;DHT22;20194;50.950;5.346;2023-08-17T09:17:27;21.40;31.00
33903;DHT22;20194;50.950;5.346;2023-08-17T09:19:54;21.40;30.00
33903;DHT22;20194;50.950;5.346;2023-08-17T09:22:37;21.50;31.70
33903;DHT22;20194;50.950;5.346;2023-08-17T09:25:05;21.60;28.50
33903;DHT22;20194;50.950;5.346;2023-08-17T09:27:31;21.40;30.30
33903;DHT22;20194;50.950;5.346;2023-08-17T09:30:05;21.30;31.80
33903;DHT22;20194;50.950;5.346;2023-08-17T09:32:32;21.20;33.20
33903;DHT22;20194;50.950;5.346;2023-08-17T09:35:01;21.20;36.90
33903;DHT22;20194;50.950;5.346;2023-08-17T09:37:27;21.30;35.50
33903;DHT22;20194;50.950;5.346;2023-08-17T09:39:53;21.50;33.80
33903;DHT22;20194;50.950;5.346;2023-08-17T09:42:20;21.70;29.30
33903;DHT22;20194;50.950;5.346;2023-08-17T09:44:51;21.90;27.90
33903;DHT22;20194;50.950;5.346;2023-08-17T09:47:17;22.10;26.70
33903;DHT22;20194;50.950;5.346;2023-08-17T09:49:52;22.00;23.50
33903;DHT22;20194;50.950;5.346;2023-08-17T09:52:19;21.90;25.90
33903;DHT22;20194;50.950;5.346;2023-08-17T09:54:46;22.00;23.50
33903;DHT22;20194;50.950;5.346;2023-08-17T09:57:15;22.10;24.40
33903;DHT22;20194;50.950;5.346;2023-08-17T09:59:41;22.10;24.10
33903;DHT22;20194;50.950;5.346;2023-08-17T10:02:22;22.10;24.30
33903;DHT22;20194;50.950;5.346;2023-08-17T10:04:52;21.90;25.00
33903;DHT22;20194;50.950;5.346;2023-08-17T10:07:19;21.80;27.50
33903;DHT22;20194;50.950;5.346;2023-08-17T10:09:53;21.60;27.20
33903;DHT22;20194;50.950;5.346;2023-08-17T10:12:23;21.60;27.50
33903;DHT22;20194;50.950;5.346;2023-08-17T10:14:57;21.50;30.20
33903;DHT22;20194;50.950;5.346;2023-08-17T10:17:26;21.60;29.50
33903;DHT22;20194;50.950;5.346;2023-08-17T10:19:56;21.70;29.80
33903;DHT22;20194;50.950;5.346;2023-08-17T10:25:42;21.50;30.40
33903;DHT22;20194;50.950;5.346;2023-08-17T10:28:12;21.60;31.70
33903;DHT22;20194;50.950;5.346;2023-08-17T10:30:38;21.40;30.90
33903;DHT22;20194;50.950;5.346;2023-08-17T10:33:05;21.30;35.80
33903;DHT22;20194;50.950;5.346;2023-08-17T10:35:35;21.50;34.50
33903;DHT22;20194;50.950;5.346;2023-08-17T10:38:03;21.70;31.20
33903;DHT22;20194;50.950;5.346;2023-08-17T10:40:35;21.80;29.90
33903;DHT22;20194;50.950;5.346;2023-08-17T10:43:01;22.10;27.10
33903;DHT22;20194;50.950;5.346;2023-08-17T10:45:36;22.10;25.80
33903;DHT22;20194;50.950;5.346;2023-08-17T10:50:34;21.70;28.70
33903;DHT22;20194;50.950;5.346;2023-08-17T10:53:13;21.70;28.70
33903;DHT22;20194;50.950;5.346;2023-08-17T10:55:45;21.90;28.10
33903;DHT22;20194;50.950;5.346;2023-08-17T10:58:13;21.90;28.70
33903;DHT22;20194;50.950;5.346;2023-08-17T11:00:39;21.80;29.50
33903;DHT22;20194;50.950;5.346;2023-08-17T11:03:10;22.10;27.00
33903;DHT22;20194;50.950;5.346;2023-08-17T11:05:45;22.20;25.20
33903;DHT22;20194;50.950;5.346;2023-08-17T11:08:32;22.10;25.80
33903;DHT22;20194;50.950;5.346;2023-08-17T11:11:11;21.80;26.00
33903;DHT22;20194;50.950;5.346;2023-08-17T11:13:40;21.80;28.60
33903;DHT22;20194;50.950;5.346;2023-08-17T11:16:07;21.80;27.90
33903;DHT22;20194;50.950;5.346;2023-08-17T11:18:33;21.80;29.70
33903;DHT22;20194;50.950;5.346;2023-08-17T11:21:02;21.90;28.90
33903;DHT22;20194;50.950;5.346;2023-08-17T11:23:33;22.00;28.70
33903;DHT22;20194;50.950;5.346;2023-08-17T11:25:59;22.00;26.90
33903;DHT22;20194;50.950;5.346;2023-08-17T11:28:26;22.00;27.20
33903;DHT22;20194;50.950;5.346;2023-08-17T11:30:59;22.10;26.10
33903;DHT22;20194;50.950;5.346;2023-08-17T11:33:26;22.30;24.80
33903;DHT22;20194;50.950;5.346;2023-08-17T11:35:54;22.30;22.90
33903;DHT22;20194;50.950;5.346;2023-08-17T11:38:20;22.30;24.60
33903;DHT22;20194;50.950;5.346;2023-08-17T11:40:46;22.30;22.90
33903;DHT22;20194;50.950;5.346;2023-08-17T11:43:11;21.90;28.00
33903;DHT22;20194;50.950;5.346;2023-08-17T11:45:37;22.00;27.90
33903;DHT22;20194;50.950;5.346;2023-08-17T11:48:03;21.80;28.00
33903;DHT22;20194;50.950;5.346;2023-08-17T11:50:29;21.90;29.40
33903;DHT22;20194;50.950;5.346;2023-08-17T11:52:55;21.80;29.00
33903;DHT22;20194;50.950;5.346;2023-08-17T11:55:20;21.80;30.10
33903;DHT22;20194;50.950;5.346;2023-08-17T11:57:46;21.80;28.80
33903;DHT22;20194;50.950;5.346;2023-08-17T12:00:18;22.00;27.30
33903;DHT22;20194;50.950;5.346;2023-08-17T12:02:49;22.10;26.90
33903;DHT22;20194;50.950;5.346;2023-08-17T12:05:22;22.00;27.10
33903;DHT22;20194;50.950;5.346;2023-08-17T12:07:50;21.90;27.20
33903;DHT22;20194;50.950;5.346;2023-08-17T12:10:17;21.80;30.00
33903;DHT22;20194;50.950;5.346;2023-08-17T12:12:43;21.80;30.00
33903;DHT22;20194;50.950;5.346;2023-08-17T12:15:10;21.80;29.50
33903;DHT22;20194;50.950;5.346;2023-08-17T12:17:45;21.70;31.80
33903;DHT22;20194;50.950;5.346;2023-08-17T12:20:19;21.70;32.60
33903;DHT22;20194;50.950;5.346;2023-08-17T12:22:46;21.80;32.70
33903;DHT22;20194;50.950;5.346;2023-08-17T12:25:13;21.90;30.60
33903;DHT22;20194;50.950;5.346;2023-08-17T12:27:39;22.00;29.60
33903;DHT22;20194;50.950;5.346;2023-08-17T12:30:11;22.20;26.50
33903;DHT22;20194;50.950;5.346;2023-08-17T12:32:37;22.20;26.90
33903;DHT22;20194;50.950;5.346;2023-08-17T12:35:03;22.00;28.20
33903;DHT22;20194;50.950;5.346;2023-08-17T12:37:29;21.90;31.00
33903;DHT22;20194;50.950;5.346;2023-08-17T12:39:55;21.90;29.90
33903;DHT22;20194;50.950;5.346;2023-08-17T12:42:21;21.90;31.80
33903;DHT22;20194;50.950;5.346;2023-08-17T12:44:47;22.00;31.10
33903;DHT22;20194;50.950;5.346;2023-08-17T12:47:12;22.10;29.80
33903;DHT22;20194;50.950;5.346;2023-08-17T12:49:38;22.30;27.50
33903;DHT22;20194;50.950;5.346;2023-08-17T12:52:04;22.50;25.90
33903;DHT22;20194;50.950;5.346;2023-08-17T12:54:30;22.40;26.10
33903;DHT22;20194;50.950;5.346;2023-08-17T12:56:55;22.20;26.20
33903;DHT22;20194;50.950;5.346;2023-08-17T12:59:21;22.30;25.20
33903;DHT22;20194;50.950;5.346;2023-08-17T13:01:46;22.40;25.70
33903;DHT22;20194;50.950;5.346;2023-08-17T13:04:13;22.70;24.20
33903;DHT22;20194;50.950;5.346;2023-08-17T13:06:38;22.70;21.10
33903;DHT22;20194;50.950;5.346;2023-08-17T13:09:05;22.50;23.40
33903;DHT22;20194;50.950;5.346;2023-08-17T13:11:31;22.70;21.80
33903;DHT22;20194;50.950;5.346;2023-08-17T13:13:57;22.90;20.60
33903;DHT22;20194;50.950;5.346;2023-08-17T13:16:23;23.00;20.90
33903;DHT22;20194;50.950;5.346;2023-08-17T13:18:48;23.00;21.30
33903;DHT22;20194;50.950;5.346;2023-08-17T13:21:15;23.00;22.90
33903;DHT22;20194;50.950;5.346;2023-08-17T13:23:43;23.20;21.10
33903;DHT22;20194;50.950;5.346;2023-08-17T13:26:09;23.10;18.60
33903;DHT22;20194;50.950;5.346;2023-08-17T13:28:34;23.20;20.50
33903;DHT22;20194;50.950;5.346;2023-08-17T13:31:00;23.10;19.00
33903;DHT22;20194;50.950;5.346;2023-08-17T13:33:26;23.20;18.50
33903;DHT22;20194;50.950;5.346;2023-08-17T13:35:51;23.10;19.60
33903;DHT22;20194;50.950;5.346;2023-08-17T13:38:17;23.00;19.40
33903;DHT22;20194;50.950;5.346;2023-08-17T13:40:43;22.80;22.40
33903;DHT22;20194;50.950;5.346;2023-08-17T13:43:08;22.80;25.60
33903;DHT22;20194;50.950;5.346;2023-08-17T13:45:39;22.90;22.30
33903;DHT22;20194;50.950;5.346;2023-08-17T13:48:06;22.80;23.10
33903;DHT22;20194;50.950;5.346;2023-08-17T13:50:32;22.90;22.60
33903;DHT22;20194;50.950;5.346;2023-08-17T13:52:57;22.70;23.40
33903;DHT22;20194;50.950;5.346;2023-08-17T13:55:26;22.50;25.50
33903;DHT22;20194;50.950;5.346;2023-08-17T13:57:52;22.60;25.80
33903;DHT22;20194;50.950;5.346;2023-08-17T14:00:21;22.70;24.50
33903;DHT22;20194;50.950;5.346;2023-08-17T14:02:47;22.60;24.90
33903;DHT22;20194;50.950;5.346;2023-08-17T14:05:12;22.50;27.10
33903;DHT22;20194;50.950;5.346;2023-08-17T14:07:39;22.60;27.10
33903;DHT22;20194;50.950;5.346;2023-08-17T14:10:04;22.40;27.60
33903;DHT22;20194;50.950;5.346;2023-08-17T14:12:30;22.30;30.00
33903;DHT22;20194;50.950;5.346;2023-08-17T14:14:56;22.40;27.90
33903;DHT22;20194;50.950;5.346;2023-08-17T14:17:22;22.30;29.20
33903;DHT22;20194;50.950;5.346;2023-08-17T14:19:47;22.50;26.70
33903;DHT22;20194;50.950;5.346;2023-08-17T14:22:13;22.50;27.30
33903;DHT22;20194;50.950;5.346;2023-08-17T14:24:39;22.60;26.40
33903;DHT22;20194;50.950;5.346;2023-08-17T14:27:04;22.70;26.20
33903;DHT22;20194;50.950;5.346;2023-08-17T14:29:30;22.70;25.70
33903;DHT22;20194;50.950;5.346;2023-08-17T14:31:56;22.70;25.70
33903;DHT22;20194;50.950;5.346;2023-08-17T14:34:21;22.60;25.10
33903;DHT22;20194;50.950;5.346;2023-08-17T14:36:47;22.70;25.10
33903;DHT22;20194;50.950;5.346;2023-08-17T14:39:13;22.60;26.10
33903;DHT22;20194;50.950;5.346;2023-08-17T14:41:38;22.80;26.30
33903;DHT22;20194;50.950;5.346;2023-08-17T14:44:04;22.80;25.20
33903;DHT22;20194;50.950;5.346;2023-08-17T14:46:30;22.90;25.90
33903;DHT22;20194;50.950;5.346;2023-08-17T14:48:56;22.90;24.70
33903;DHT22;20194;50.950;5.346;2023-08-17T14:51:23;23.00;23.60
33903;DHT22;20194;50.950;5.346;2023-08-17T14:53:49;23.00;24.30
33903;DHT22;20194;50.950;5.346;2023-08-17T14:56:15;23.00;23.70
33903;DHT22;20194;50.950;5.346;2023-08-17T14:58:41;23.10;23.60
33903;DHT22;20194;50.950;5.346;2023-08-17T15:01:07;23.20;22.40
33903;DHT22;20194;50.950;5.346;2023-08-17T15:03:33;23.10;21.60
33903;DHT22;20194;50.950;5.346;2023-08-17T15:05:59;22.80;25.90
33903;DHT22;20194;50.950;5.346;2023-08-17T15:08:25;22.60;27.80
33903;DHT22;20194;50.950;5.346;2023-08-17T15:10:50;22.70;30.00
33903;DHT22;20194;50.950;5.346;2023-08-17T15:13:16;22.80;27.00
33903;DHT22;20194;50.950;5.346;2023-08-17T15:15:43;23.00;26.80
33903;DHT22;20194;50.950;5.346;2023-08-17T15:18:09;22.90;26.00
33903;DHT22;20194;50.950;5.346;2023-08-17T15:20:36;23.00;27.30
33903;DHT22;20194;50.950;5.346;2023-08-17T15:23:01;22.90;26.40
33903;DHT22;20194;50.950;5.346;2023-08-17T15:25:28;22.80;28.90
33903;DHT22;20194;50.950;5.346;2023-08-17T15:27:54;22.90;30.00
33903;DHT22;20194;50.950;5.346;2023-08-17T15:30:20;23.10;25.70
33903;DHT22;20194;50.950;5.346;2023-08-17T15:32:45;23.20;25.60
33903;DHT22;20194;50.950;5.346;2023-08-17T15:35:11;23.10;25.60
33903;DHT22;20194;50.950;5.346;2023-08-17T15:37:40;22.90;26.90